Terminal Aerodrome Forecast
Issued by NWS

Home | Current Version | Previous Version | Graphics & Text | Print | Product List | Glossary On
Versions: 1 2 3 4 5 6 7 8 9 10 11 12 13 14 15 16 17
000
FTUS43 KICT 261125
TAFRSL
TAF
KRSL 261125Z 2612/2712 34016G23KT P6SM SCT007 OVC015
      TEMPO 2612/2615 BKN007
     FM261500 34016G24KT P6SM SCT035 BKN150
     FM262300 34011KT P6SM SKC
     FM270700 27004KT P6SM SCT200=

USA.gov is the U.S. government's official web portal to all federal, state and local government web resources and services.